createdAt,value
2022-07-26T00:00:30.533Z,99105.38
2022-07-26T00:01:32.918Z,99116.22
2022-07-26T00:02:37.935Z,99112.25
2022-07-26T00:03:40.284Z,99116.50
2022-07-26T00:04:42.618Z,99114.41
2022-07-26T00:05:44.877Z,99121.97
2022-07-26T00:06:47.283Z,99120.16
2022-07-26T00:07:49.833Z,99124.78
2022-07-26T00:08:52.555Z,99119.03
2022-07-26T00:09:54.930Z,99118.19
2022-07-26T00:10:57.145Z,99102.00
2022-07-26T00:11:59.720Z,99115.53
2022-07-26T00:13:02.269Z,99112.41
2022-07-26T00:14:07.186Z,99119.16
2022-07-26T00:15:11.153Z,99118.88
2022-07-26T00:16:13.852Z,99112.13
2022-07-26T00:17:16.333Z,99113.13
2022-07-26T00:18:18.826Z,99122.09
2022-07-26T00:19:21.286Z,99124.91
2022-07-26T00:20:23.569Z,99119.75
2022-07-26T00:21:30.797Z,99128.72
2022-07-26T00:22:35.806Z,99128.72
2022-07-26T00:23:38.211Z,99126.19
2022-07-26T00:24:40.860Z,99132.13
2022-07-26T00:25:43.094Z,99127.91
2022-07-26T00:26:45.469Z,99135.22
2022-07-26T00:27:47.787Z,99136.63
2022-07-26T00:28:50.038Z,99134.53
2022-07-26T00:29:52.358Z,99138.88
2022-07-26T00:30:54.628Z,99136.63
2022-07-26T00:31:57.107Z,99135.94
2022-07-26T00:32:59.495Z,99145.66
2022-07-26T00:34:01.790Z,99143.81
2022-07-26T00:35:04.712Z,99134.94
2022-07-26T00:36:08.178Z,99138.75
2022-07-26T00:37:10.425Z,99141.97
2022-07-26T00:38:12.693Z,99144.91
2022-07-26T00:39:14.956Z,99146.78
2022-07-26T00:40:17.687Z,99142.56
2022-07-26T00:41:19.911Z,99139.75
2022-07-26T00:42:22.183Z,99147.31
2022-07-26T00:43:24.481Z,99138.75
2022-07-26T00:44:37.141Z,99146.38
2022-07-26T00:45:39.439Z,99150.53
2022-07-26T00:46:43.220Z,99143.06
2022-07-26T00:47:45.776Z,99147.88
2022-07-26T00:48:48.265Z,99158.00
2022-07-26T00:49:50.818Z,99159.44
2022-07-26T00:50:54.478Z,99152.81
2022-07-26T00:51:56.860Z,99153.34
2022-07-26T00:52:59.250Z,99154.88
2022-07-26T00:54:01.693Z,99154.47
2022-07-26T00:55:07.620Z,99156.03
2022-07-26T00:56:10.103Z,99152.53
2022-07-26T00:57:13.782Z,99158.41
2022-07-26T00:58:18.293Z,99160.25
2022-07-26T00:59:20.589Z,99156.03
2022-07-26T01:00:27.734Z,99166.72
2022-07-26T01:01:30.122Z,99169.53
2022-07-26T01:02:32.554Z,99162.91
2022-07-26T01:03:36.640Z,99162.91
2022-07-26T01:04:44.393Z,99154.34
2022-07-26T01:05:46.699Z,99155.19
2022-07-26T01:06:49.678Z,99157.16
2022-07-26T01:07:53.337Z,99152.50
2022-07-26T01:08:55.999Z,99152.19
2022-07-26T01:09:58.259Z,99153.59
2022-07-26T01:11:00.605Z,99156.28
2022-07-26T01:12:03.006Z,99144.34
2022-07-26T01:13:06.101Z,99151.78
2022-07-26T01:14:08.639Z,99148.00
2022-07-26T01:15:13.194Z,99155.88
2022-07-26T01:16:16.137Z,99156.16
2022-07-26T01:17:18.471Z,99149.09
2022-07-26T01:18:20.776Z,99148.84
2022-07-26T01:19:23.239Z,99154.03
2022-07-26T01:20:25.565Z,99155.88
2022-07-26T01:21:32.316Z,99155.31
2022-07-26T01:22:34.794Z,99155.47
2022-07-26T01:23:38.627Z,99159.56
2022-07-26T01:24:40.934Z,99163.47
2022-07-26T01:25:45.982Z,99157.69
2022-07-26T01:26:51.000Z,99172.03
2022-07-26T01:27:53.602Z,99168.38
2022-07-26T01:28:55.970Z,99166.41
2022-07-26T01:29:58.272Z,99160.38
2022-07-26T01:31:00.579Z,99157.97
2022-07-26T01:32:04.800Z,99150.94
2022-07-26T01:33:07.090Z,99153.44
2022-07-26T01:34:09.723Z,99153.25
2022-07-26T01:35:12.174Z,99151.31
2022-07-26T01:36:14.539Z,99150.78
2022-07-26T01:37:16.782Z,99154.69
2022-07-26T01:38:18.986Z,99147.25
2022-07-26T01:39:21.216Z,99156.28
2022-07-26T01:40:23.515Z,99146.13
2022-07-26T01:41:37.322Z,99148.53
2022-07-26T01:42:41.122Z,99155.41
2022-07-26T01:43:43.485Z,99142.44
2022-07-26T01:44:45.726Z,99146.06
2022-07-26T01:45:48.078Z,99145.91
2022-07-26T01:46:50.709Z,99136.47
2022-07-26T01:47:53.055Z,99148.75
2022-07-26T01:48:55.793Z,99136.47
2022-07-26T01:49:58.044Z,99138.81
2022-07-26T01:51:00.858Z,99137.28
2022-07-26T01:52:03.286Z,99136.97
2022-07-26T01:53:06.087Z,99151.44
2022-07-26T01:54:09.348Z,99144.97
2022-07-26T01:55:12.016Z,99154.13
2022-07-26T01:56:14.766Z,99154.91
2022-07-26T01:57:17.041Z,99154.25
2022-07-26T01:58:19.538Z,99154.69
2022-07-26T01:59:21.855Z,99156.44
2022-07-26T02:00:24.144Z,99140.75
2022-07-26T02:01:38.435Z,99154.09
2022-07-26T02:02:42.219Z,99150.88
2022-07-26T02:03:44.674Z,99157.03
2022-07-26T02:04:59.362Z,99147.34
2022-07-26T02:06:02.344Z,99140.31
2022-07-26T02:07:05.591Z,99155.34
2022-07-26T02:08:15.188Z,99147.41
2022-07-26T02:09:17.460Z,99145.97
2022-07-26T02:10:21.425Z,99145.00
2022-07-26T02:11:24.202Z,99138.66
2022-07-26T02:12:26.653Z,99132.22
2022-07-26T02:13:29.721Z,99135.69
2022-07-26T02:14:32.009Z,99137.25
2022-07-26T02:15:34.326Z,99138.34
2022-07-26T02:16:36.955Z,99141.16
2022-07-26T02:17:39.253Z,99146.09
2022-07-26T02:18:42.866Z,99144.53
2022-07-26T02:19:45.276Z,99147.63
2022-07-26T02:20:47.498Z,99150.75
2022-07-26T02:21:49.744Z,99146.72
2022-07-26T02:22:52.064Z,99151.44
2022-07-26T02:23:54.289Z,99149.16
2022-07-26T02:24:58.496Z,99155.00
2022-07-26T02:26:02.877Z,99153.94
2022-07-26T02:27:05.656Z,99156.41
2022-07-26T02:28:08.043Z,99157.94
2022-07-26T02:29:10.358Z,99157.44
2022-07-26T02:30:13.529Z,99148.28
2022-07-26T02:31:15.870Z,99155.66
2022-07-26T02:32:18.241Z,99160.47
2022-07-26T02:33:20.564Z,99153.44
2022-07-26T02:34:23.306Z,99143.28
2022-07-26T02:35:25.630Z,99152.19
2022-07-26T02:36:27.905Z,99149.66
2022-07-26T02:37:30.430Z,99148.94
2022-07-26T02:38:38.947Z,99155.28
2022-07-26T02:39:41.214Z,99151.69
2022-07-26T02:40:43.843Z,99157.56
2022-07-26T02:41:46.785Z,99152.88
2022-07-26T02:42:49.031Z,99155.78
2022-07-26T02:43:51.369Z,99163.47
2022-07-26T02:44:54.061Z,99149.66
2022-07-26T02:46:01.881Z,99158.00
2022-07-26T02:47:06.199Z,99154.69
2022-07-26T02:48:08.518Z,99156.81
2022-07-26T02:49:10.875Z,99155.97
2022-07-26T02:50:16.743Z,99152.34
2022-07-26T02:51:18.962Z,99158.53
2022-07-26T02:52:21.304Z,99152.88
2022-07-26T02:53:23.602Z,99158.34
2022-07-26T02:54:25.942Z,99156.69
2022-07-26T02:55:28.346Z,99159.69
2022-07-26T02:56:30.650Z,99156.28
2022-07-26T02:57:45.468Z,99156.50
2022-07-26T02:58:49.132Z,99162.88
2022-07-26T02:59:52.168Z,99155.53
2022-07-26T03:00:54.595Z,99156.75
2022-07-26T03:01:56.998Z,99161.09
2022-07-26T03:03:00.868Z,99160.53
2022-07-26T03:04:03.598Z,99161.91
2022-07-26T03:05:06.843Z,99158.75
2022-07-26T03:06:09.114Z,99154.28
2022-07-26T03:07:11.375Z,99149.84
2022-07-26T03:08:13.613Z,99155.06
2022-07-26T03:09:15.986Z,99146.78
2022-07-26T03:10:18.483Z,99156.09
2022-07-26T03:11:20.826Z,99161.19
2022-07-26T03:12:23.112Z,99156.22
2022-07-26T03:13:25.388Z,99153.97
2022-07-26T03:14:27.633Z,99147.63
2022-07-26T03:15:32.885Z,99156.56
2022-07-26T03:16:35.305Z,99164.94
2022-07-26T03:17:37.674Z,99164.13
2022-07-26T03:18:40.026Z,99161.63
2022-07-26T03:19:42.437Z,99154.22
2022-07-26T03:20:44.732Z,99160.13
2022-07-26T03:21:46.942Z,99169.44
2022-07-26T03:22:49.155Z,99156.28
2022-07-26T03:23:51.406Z,99158.47
2022-07-26T03:24:53.692Z,99169.69
2022-07-26T03:25:56.021Z,99171.19
2022-07-26T03:26:58.361Z,99164.00
2022-07-26T03:28:00.661Z,99167.09
2022-07-26T03:29:03.093Z,99162.88
2022-07-26T03:30:06.389Z,99168.03
2022-07-26T03:31:09.113Z,99168.41
2022-07-26T03:32:11.387Z,99167.22
2022-07-26T03:33:13.613Z,99172.47
2022-07-26T03:34:15.827Z,99167.22
2022-07-26T03:35:18.084Z,99170.66
2022-07-26T03:36:20.410Z,99172.88
2022-07-26T03:37:23.350Z,99162.34
2022-07-26T03:38:26.432Z,99172.66
2022-07-26T03:39:28.883Z,99164.28
2022-07-26T03:40:31.126Z,99176.59
2022-07-26T03:41:34.515Z,99169.09
2022-07-26T03:42:36.983Z,99165.78
2022-07-26T03:43:39.212Z,99172.50
2022-07-26T03:44:41.788Z,99171.50
2022-07-26T03:45:44.187Z,99173.72
2022-07-26T03:46:49.095Z,99177.94
2022-07-26T03:47:53.350Z,99163.41
2022-07-26T03:48:55.836Z,99178.91
2022-07-26T03:49:58.152Z,99183.50
2022-07-26T03:51:00.640Z,99172.13
2022-07-26T03:52:03.267Z,99172.00
2022-07-26T03:53:05.596Z,99180.91
2022-07-26T03:54:08.075Z,99183.75
2022-07-26T03:55:29.279Z,99188.50
2022-07-26T03:56:32.045Z,99179.59
2022-07-26T03:57:34.520Z,99181.44
2022-07-26T03:58:36.838Z,99179.81
2022-07-26T03:59:39.649Z,99188.28
2022-07-26T04:00:42.010Z,99179.06
2022-07-26T04:01:45.578Z,99179.06
2022-07-26T04:02:48.111Z,99183.47
2022-07-26T04:03:50.443Z,99183.63
2022-07-26T04:04:52.754Z,99186.66
2022-07-26T04:05:55.120Z,99186.28
2022-07-26T04:06:58.380Z,99188.59
2022-07-26T04:08:20.850Z,99188.94
2022-07-26T04:09:23.876Z,99199.03
2022-07-26T04:10:26.319Z,99197.59
2022-07-26T04:11:28.867Z,99193.31
2022-07-26T04:12:31.215Z,99194.91
2022-07-26T04:13:35.241Z,99194.91
2022-07-26T04:14:38.496Z,99207.03
2022-07-26T04:15:40.898Z,99200.59
2022-07-26T04:16:43.989Z,99199.78
2022-07-26T04:17:48.281Z,99193.81
2022-07-26T04:18:50.974Z,99199.50
2022-07-26T04:19:53.229Z,99197.94
2022-07-26T04:20:55.577Z,99194.50
2022-07-26T04:21:57.786Z,99185.06
2022-07-26T04:23:00.097Z,99192.91
2022-07-26T04:24:02.427Z,99200.16
2022-07-26T04:25:06.069Z,99187.28
2022-07-26T04:26:08.485Z,99199.41
2022-07-26T04:27:10.760Z,99190.72
2022-07-26T04:28:13.124Z,99191.91
2022-07-26T04:29:15.779Z,99196.03
2022-07-26T04:30:18.134Z,99192.59
2022-07-26T04:31:20.614Z,99198.28
2022-07-26T04:32:22.931Z,99199.00
2022-07-26T04:33:25.812Z,99199.97
2022-07-26T04:34:28.094Z,99204.19
2022-07-26T04:35:30.398Z,99199.34
2022-07-26T04:36:32.932Z,99214.59
2022-07-26T04:37:42.746Z,99195.69
2022-07-26T04:38:45.117Z,99199.53
2022-07-26T04:39:51.659Z,99199.44
2022-07-26T04:40:57.932Z,99200.72
2022-07-26T04:42:00.198Z,99189.25
2022-07-26T04:43:02.569Z,99198.72
2022-07-26T04:44:05.517Z,99199.13
2022-07-26T04:45:08.908Z,99202.81
2022-07-26T04:46:11.247Z,99206.69
2022-07-26T04:47:13.593Z,99205.13
2022-07-26T04:48:16.562Z,99201.25
2022-07-26T04:49:18.918Z,99207.22
2022-07-26T04:50:22.660Z,99203.19
2022-07-26T04:51:26.417Z,99201.94
2022-07-26T04:52:29.337Z,99207.31
2022-07-26T04:53:31.967Z,99208.69
2022-07-26T04:54:34.386Z,99216.41
2022-07-26T04:55:40.378Z,99200.81
2022-07-26T04:56:42.610Z,99216.75
2022-07-26T04:57:47.460Z,99209.88
2022-07-26T04:58:50.108Z,99224.13
2022-07-26T05:00:03.651Z,99216.00
2022-07-26T05:01:15.110Z,99219.34
2022-07-26T05:02:18.372Z,99216.84
2022-07-26T05:03:22.058Z,99227.41
2022-07-26T05:04:24.733Z,99223.94
2022-07-26T05:05:29.943Z,99217.38
2022-07-26T05:06:32.367Z,99226.94
2022-07-26T05:07:45.490Z,99224.97
2022-07-26T05:08:47.742Z,99222.09
2022-07-26T05:09:50.044Z,99221.19
2022-07-26T05:10:55.502Z,99224.59
2022-07-26T05:11:58.374Z,99232.13
2022-07-26T05:13:01.378Z,99235.84
2022-07-26T05:14:03.699Z,99236.41
2022-07-26T05:15:07.046Z,99239.69
2022-07-26T05:16:16.845Z,99243.47
2022-07-26T05:17:19.511Z,99223.03
2022-07-26T05:18:23.369Z,99238.81
2022-07-26T05:19:25.981Z,99241.19
2022-07-26T05:20:28.515Z,99247.81
2022-07-26T05:21:30.897Z,99243.53
2022-07-26T05:22:34.453Z,99243.31
2022-07-26T05:23:36.717Z,99239.00
2022-07-26T05:24:39.016Z,99232.34
2022-07-26T05:25:41.467Z,99234.81
2022-07-26T05:26:43.759Z,99228.25
2022-07-26T05:27:46.087Z,99242.97
2022-07-26T05:28:48.416Z,99235.44
2022-07-26T05:29:50.926Z,99231.94
2022-07-26T05:30:53.212Z,99231.94
2022-07-26T05:31:55.605Z,99224.38
2022-07-26T05:32:57.858Z,99232.47
2022-07-26T05:34:00.371Z,99235.41
2022-07-26T05:35:02.697Z,99231.19
2022-07-26T05:36:05.254Z,99236.72
2022-07-26T05:37:07.798Z,99228.50
2022-07-26T05:38:10.025Z,99241.28
2022-07-26T05:39:15.866Z,99233.28
2022-07-26T05:40:18.437Z,99240.84
2022-07-26T05:41:20.769Z,99237.28
2022-07-26T05:42:23.111Z,99230.72
2022-07-26T05:43:27.658Z,99234.66
2022-07-26T05:44:44.578Z,99237.97
2022-07-26T05:45:47.738Z,99238.38
2022-07-26T05:46:51.013Z,99240.91
2022-07-26T05:47:53.547Z,99251.06
2022-07-26T05:48:59.566Z,99230.94
2022-07-26T05:50:02.404Z,99239.78
2022-07-26T05:51:05.598Z,99241.72
2022-07-26T05:52:09.447Z,99251.59
2022-07-26T05:53:11.837Z,99246.56
2022-07-26T05:54:14.303Z,99240.78
2022-07-26T05:55:16.583Z,99254.44
2022-07-26T05:56:20.483Z,99253.44
2022-07-26T05:57:22.907Z,99268.88
2022-07-26T05:58:25.447Z,99261.97
2022-07-26T05:59:28.144Z,99256.31
2022-07-26T06:00:30.546Z,99261.41
2022-07-26T06:01:34.332Z,99250.09
2022-07-26T06:02:36.747Z,99243.97
2022-07-26T06:03:39.498Z,99249.84
2022-07-26T06:04:42.014Z,99240.81
2022-07-26T06:05:44.466Z,99236.13
2022-07-26T06:06:46.870Z,99241.59
2022-07-26T06:07:49.332Z,99233.78
2022-07-26T06:08:51.869Z,99242.97
2022-07-26T06:09:54.337Z,99241.53
2022-07-26T06:10:56.868Z,99237.47
2022-07-26T06:11:59.696Z,99230.06
2022-07-26T06:13:02.758Z,99241.28
2022-07-26T06:14:05.345Z,99239.97
2022-07-26T06:15:15.267Z,99238.28
2022-07-26T06:16:18.281Z,99243.63
2022-07-26T06:17:20.817Z,99235.78
2022-07-26T06:18:23.330Z,99238.78
2022-07-26T06:19:25.855Z,99236.81
2022-07-26T06:20:28.295Z,99243.72
2022-07-26T06:21:30.664Z,99241.91
2022-07-26T06:22:33.033Z,99238.94
2022-07-26T06:23:35.401Z,99238.31
2022-07-26T06:24:37.764Z,99246.28
2022-07-26T06:25:40.710Z,99235.84
2022-07-26T06:26:43.123Z,99246.16
2022-07-26T06:27:45.576Z,99247.16
2022-07-26T06:28:50.348Z,99249.16
2022-07-26T06:29:53.256Z,99248.19
2022-07-26T06:30:55.692Z,99255.84
2022-07-26T06:31:58.044Z,99239.22
2022-07-26T06:33:00.740Z,99249.78
2022-07-26T06:34:03.361Z,99251.34
2022-07-26T06:35:05.989Z,99235.50
2022-07-26T06:36:08.948Z,99260.75
2022-07-26T06:37:11.379Z,99255.03
2022-07-26T06:38:13.773Z,99257.91
2022-07-26T06:39:16.086Z,99249.66
2022-07-26T06:40:18.406Z,99257.75
2022-07-26T06:41:20.735Z,99250.03
2022-07-26T06:42:23.017Z,99257.44
2022-07-26T06:43:25.718Z,99248.47
2022-07-26T06:44:28.071Z,99263.03
2022-07-26T06:45:30.579Z,99266.63
2022-07-26T06:46:33.059Z,99258.56
2022-07-26T06:47:35.544Z,99261.94
2022-07-26T06:48:37.930Z,99265.31
2022-07-26T06:49:41.760Z,99260.03
2022-07-26T06:50:44.037Z,99248.88
2022-07-26T06:51:46.409Z,99255.22
2022-07-26T06:52:48.892Z,99262.38
2022-07-26T06:53:51.770Z,99265.69
2022-07-26T06:54:54.201Z,99260.41
2022-07-26T06:55:56.520Z,99256.66
2022-07-26T06:56:58.926Z,99258.69
2022-07-26T06:58:01.347Z,99250.94
2022-07-26T06:59:09.282Z,99257.22
2022-07-26T07:00:12.557Z,99252.38
2022-07-26T07:01:58.399Z,99255.31
2022-07-26T07:02:38.050Z,99250.09
2022-07-26T07:03:40.582Z,99263.50
2022-07-26T07:04:43.295Z,99257.19
2022-07-26T07:05:50.079Z,99244.63
2022-07-26T07:06:52.807Z,99251.81
2022-07-26T07:07:55.292Z,99261.06
2022-07-26T07:08:57.618Z,99251.81
2022-07-26T07:10:00.048Z,99257.94
2022-07-26T07:11:02.380Z,99262.81
2022-07-26T07:12:10.407Z,99264.09
2022-07-26T07:13:13.108Z,99264.28
2022-07-26T07:14:15.891Z,99276.41
2022-07-26T07:15:18.246Z,99264.44
2022-07-26T07:16:20.565Z,99281.28
2022-07-26T07:17:22.937Z,99286.22
2022-07-26T07:18:25.180Z,99278.78
2022-07-26T07:19:27.814Z,99271.28
2022-07-26T07:20:31.789Z,99279.09
2022-07-26T07:21:34.086Z,99282.59
2022-07-26T07:22:36.483Z,99276.97
2022-07-26T07:23:38.964Z,99285.22
2022-07-26T07:24:42.095Z,99277.13
2022-07-26T07:25:44.847Z,99278.34
2022-07-26T07:26:47.529Z,99277.94
2022-07-26T07:27:49.940Z,99275.50
2022-07-26T07:28:52.462Z,99273.09
2022-07-26T07:29:56.626Z,99268.50
2022-07-26T07:31:00.279Z,99271.78
2022-07-26T07:32:03.370Z,99285.72
2022-07-26T07:33:06.045Z,99282.44
2022-07-26T07:34:08.720Z,99286.22
2022-07-26T07:35:12.855Z,99281.72
2022-07-26T07:36:15.553Z,99286.75
2022-07-26T07:37:19.908Z,99283.72
2022-07-26T07:38:22.864Z,99285.06
2022-07-26T07:39:27.275Z,99283.66
2022-07-26T07:40:37.453Z,99287.91
2022-07-26T07:41:40.806Z,99288.16
2022-07-26T07:42:43.284Z,99288.34
2022-07-26T07:43:45.723Z,99274.09
2022-07-26T07:44:50.026Z,99290.03
2022-07-26T07:45:52.410Z,99284.25
2022-07-26T07:46:54.825Z,99287.63
2022-07-26T07:47:57.455Z,99276.50
2022-07-26T07:49:00.174Z,99285.94
2022-07-26T07:50:02.741Z,99290.59
2022-07-26T07:51:05.184Z,99278.97
2022-07-26T07:52:07.797Z,99280.28
2022-07-26T07:53:10.505Z,99278.31
2022-07-26T07:54:15.909Z,99273.16
2022-07-26T07:55:39.963Z,99272.81
2022-07-26T07:56:41.833Z,99278.19
2022-07-26T07:57:45.971Z,99289.88
2022-07-26T07:58:50.441Z,99284.69
2022-07-26T07:59:54.710Z,99281.63
2022-07-26T08:00:57.151Z,99286.28
2022-07-26T08:01:59.864Z,99279.94
2022-07-26T08:03:02.211Z,99273.69
2022-07-26T08:04:05.235Z,99274.63
2022-07-26T08:05:14.255Z,99278.69
2022-07-26T08:06:19.067Z,99267.91
2022-07-26T08:07:22.070Z,99278.09
2022-07-26T08:08:25.467Z,99280.34
2022-07-26T08:09:28.937Z,99271.75
2022-07-26T08:10:32.675Z,99274.63
2022-07-26T08:11:35.530Z,99272.50
2022-07-26T08:12:39.279Z,99265.16
2022-07-26T08:13:47.955Z,99281.88
2022-07-26T08:14:51.041Z,99288.50
2022-07-26T08:15:54.807Z,99283.16
2022-07-26T08:16:58.406Z,99282.59
2022-07-26T08:18:00.816Z,99282.94
2022-07-26T08:19:03.711Z,99282.81
2022-07-26T08:20:06.971Z,99282.00
2022-07-26T08:21:11.886Z,99284.63
2022-07-26T08:22:16.766Z,99289.19
2022-07-26T08:23:21.084Z,99291.69
2022-07-26T08:24:27.406Z,99277.44
2022-07-26T08:25:30.414Z,99290.56
2022-07-26T08:26:32.734Z,99279.94
2022-07-26T08:27:40.651Z,99283.31
2022-07-26T08:28:48.074Z,99286.00
2022-07-26T08:29:50.757Z,99285.78
2022-07-26T08:30:52.971Z,99271.91
2022-07-26T08:31:55.365Z,99290.72
2022-07-26T08:32:57.794Z,99290.50
2022-07-26T08:34:00.033Z,99295.16
2022-07-26T08:35:19.556Z,99296.63
2022-07-26T08:36:22.408Z,99295.13
2022-07-26T08:37:24.922Z,99281.75
2022-07-26T08:38:27.242Z,99282.69
2022-07-26T08:39:29.723Z,99291.81
2022-07-26T08:40:33.132Z,99289.34
2022-07-26T08:41:36.399Z,99300.44
2022-07-26T08:42:38.873Z,99296.25
2022-07-26T08:43:51.967Z,99301.69
2022-07-26T08:44:55.890Z,99290.31
2022-07-26T08:46:02.215Z,99298.19
2022-07-26T08:47:04.545Z,99302.72
2022-07-26T08:48:21.457Z,99298.00
2022-07-26T08:49:23.759Z,99303.91
2022-07-26T08:50:28.499Z,99301.91
2022-07-26T08:51:37.765Z,99292.97
2022-07-26T08:52:41.859Z,99291.50
2022-07-26T08:53:48.877Z,99302.16
2022-07-26T08:54:52.840Z,99297.47
2022-07-26T08:56:07.486Z,99286.50
2022-07-26T08:57:10.796Z,99295.16
2022-07-26T08:58:13.921Z,99301.28
2022-07-26T08:59:22.161Z,99285.91
2022-07-26T09:00:29.981Z,99300.81
2022-07-26T09:01:33.224Z,99300.94
2022-07-26T09:02:41.545Z,99306.06
2022-07-26T09:03:45.729Z,99307.88
2022-07-26T09:04:51.733Z,99301.69
2022-07-26T09:06:14.750Z,99300.66
2022-07-26T09:07:21.309Z,99309.91
2022-07-26T09:08:27.153Z,99300.41
2022-07-26T09:09:31.897Z,99316.19
2022-07-26T09:10:38.977Z,99302.44
2022-07-26T09:11:47.080Z,99302.16
2022-07-26T09:12:58.356Z,99303.19
2022-07-26T09:14:03.258Z,99302.56
2022-07-26T09:15:08.826Z,99315.81
2022-07-26T09:16:14.207Z,99307.25
2022-07-26T09:17:19.031Z,99305.25
2022-07-26T09:18:31.053Z,99306.63
2022-07-26T09:19:35.635Z,99316.78
2022-07-26T09:20:50.510Z,99309.63
2022-07-26T09:21:55.607Z,99306.91
2022-07-26T09:23:12.089Z,99310.72
2022-07-26T09:24:34.546Z,99298.06
2022-07-26T09:25:40.522Z,99298.44
2022-07-26T09:26:57.839Z,99308.28
2022-07-26T09:28:05.471Z,99294.84
2022-07-26T09:29:13.340Z,99311.53
2022-07-26T09:30:19.882Z,99302.31
2022-07-26T09:31:24.018Z,99295.03
2022-07-26T09:32:27.537Z,99302.75
2022-07-26T09:33:47.600Z,99305.44
2022-07-26T09:34:58.809Z,99299.47
2022-07-26T09:36:09.950Z,99283.94
2022-07-26T09:37:13.012Z,99297.22
2022-07-26T09:38:16.609Z,99309.22
2022-07-26T09:39:33.757Z,99306.34
2022-07-26T09:40:37.141Z,99307.50
2022-07-26T09:41:42.679Z,99307.38
2022-07-26T09:43:00.438Z,99307.84
2022-07-26T09:44:06.806Z,99295.69
2022-07-26T09:45:16.673Z,99301.53
2022-07-26T09:46:19.246Z,99298.53
2022-07-26T09:47:21.785Z,99300.50
2022-07-26T09:48:33.113Z,99300.25
2022-07-26T09:49:43.499Z,99295.19
2022-07-26T09:50:48.511Z,99299.53
2022-07-26T09:51:53.003Z,99295.00
2022-07-26T09:53:12.590Z,99293.16
2022-07-26T09:54:32.364Z,99312.41
2022-07-26T09:55:44.567Z,99312.13
2022-07-26T09:56:52.319Z,99300.34
2022-07-26T09:57:54.848Z,99307.25
2022-07-26T09:58:57.257Z,99303.47
2022-07-26T10:00:00.000Z,99290.19
2022-07-26T10:01:02.757Z,99295.94
2022-07-26T10:02:05.805Z,99289.44
2022-07-26T10:03:08.312Z,99300.34
2022-07-26T10:04:11.726Z,99301.53
2022-07-26T10:05:14.254Z,99288.03
2022-07-26T10:06:16.644Z,99304.53
2022-07-26T10:07:18.934Z,99294.78
2022-07-26T10:08:21.511Z,99294.81
2022-07-26T10:09:25.357Z,99288.03
2022-07-26T10:10:30.515Z,99291.31
2022-07-26T10:11:41.425Z,99292.06
2022-07-26T10:12:45.436Z,99305.22
2022-07-26T10:13:47.674Z,99298.28
2022-07-26T10:14:51.850Z,99301.94
2022-07-26T10:15:56.658Z,99287.34
2022-07-26T10:17:01.908Z,99303.84
2022-07-26T10:18:06.568Z,99304.38
2022-07-26T10:19:10.380Z,99306.72
2022-07-26T10:20:41.690Z,99306.63
2022-07-26T10:21:44.114Z,99288.31
2022-07-26T10:22:48.881Z,99298.44
2022-07-26T10:23:56.862Z,99310.59
2022-07-26T10:25:19.237Z,99305.28
2022-07-26T10:26:33.912Z,99306.44
2022-07-26T10:27:40.790Z,99292.44
2022-07-26T10:28:43.067Z,99298.00
2022-07-26T10:29:45.367Z,99313.97
2022-07-26T10:30:47.595Z,99304.44
2022-07-26T10:32:14.183Z,99298.50
2022-07-26T10:33:17.841Z,99294.09
2022-07-26T10:34:32.024Z,99287.88
2022-07-26T10:35:34.250Z,99296.94
2022-07-26T10:36:39.112Z,99301.25
2022-07-26T10:37:58.738Z,99299.75
2022-07-26T10:39:16.404Z,99304.97
2022-07-26T10:40:22.426Z,99304.31
2022-07-26T10:41:37.101Z,99304.44
2022-07-26T10:42:48.229Z,99304.88
2022-07-26T10:44:15.380Z,99307.16
2022-07-26T10:45:20.813Z,99313.88
2022-07-26T10:46:25.076Z,99308.91
2022-07-26T10:47:30.857Z,99306.06
2022-07-26T10:48:57.633Z,99299.31
2022-07-26T10:49:59.975Z,99298.22
2022-07-26T10:51:26.382Z,99303.16
2022-07-26T10:52:31.833Z,99295.28
2022-07-26T10:53:34.322Z,99306.69
2022-07-26T10:54:56.430Z,99305.88
2022-07-26T10:56:01.402Z,99307.56
2022-07-26T10:57:03.825Z,99304.44
2022-07-26T10:58:06.268Z,99304.88
2022-07-26T10:59:08.563Z,99298.50
2022-07-26T11:00:19.495Z,99296.97
2022-07-26T11:01:21.915Z,99306.41
2022-07-26T11:02:27.842Z,99311.63
2022-07-26T11:03:40.804Z,99302.50
2022-07-26T11:04:43.094Z,99300.66
2022-07-26T11:05:45.381Z,99303.69
2022-07-26T11:06:53.220Z,99293.22
2022-07-26T11:07:58.781Z,99300.66
2022-07-26T11:09:10.189Z,99295.28
2022-07-26T11:10:12.443Z,99287.50
2022-07-26T11:11:27.674Z,99291.81
2022-07-26T11:12:29.952Z,99295.16
2022-07-26T11:13:33.669Z,99285.00
2022-07-26T11:14:35.975Z,99278.53
2022-07-26T11:15:41.783Z,99289.72
2022-07-26T11:16:46.569Z,99281.41
2022-07-26T11:17:49.860Z,99285.00
2022-07-26T11:18:53.035Z,99284.97
2022-07-26T11:19:57.258Z,99283.06
2022-07-26T11:21:16.765Z,99290.53
2022-07-26T11:22:21.951Z,99286.16
2022-07-26T11:23:33.184Z,99296.44
2022-07-26T11:24:40.675Z,99288.19
2022-07-26T11:25:42.927Z,99292.59
2022-07-26T11:26:46.896Z,99292.34
2022-07-26T11:28:02.302Z,99285.69
2022-07-26T11:29:09.751Z,99291.22
2022-07-26T11:30:19.634Z,99290.03
2022-07-26T11:31:51.389Z,99282.78
2022-07-26T11:32:59.898Z,99281.88
2022-07-26T11:34:03.647Z,99281.69
2022-07-26T11:35:06.681Z,99275.19
2022-07-26T11:36:09.688Z,99273.00
2022-07-26T11:37:12.354Z,99288.81
2022-07-26T11:38:14.938Z,99278.94
2022-07-26T11:39:30.837Z,99293.97
2022-07-26T11:40:47.183Z,99279.91
2022-07-26T11:41:49.970Z,99278.41
2022-07-26T11:42:55.056Z,99273.84
2022-07-26T11:44:02.207Z,99282.63
2022-07-26T11:45:09.500Z,99276.16
2022-07-26T11:46:11.899Z,99275.91
2022-07-26T11:47:20.316Z,99260.22
2022-07-26T11:48:22.693Z,99271.50
2022-07-26T11:51:08.890Z,99269.00
2022-07-26T11:52:12.112Z,99272.34
2022-07-26T11:53:22.168Z,99277.13
2022-07-26T11:54:28.492Z,99262.56
2022-07-26T11:55:31.831Z,99267.72
2022-07-26T11:56:38.181Z,99258.97
2022-07-26T11:57:41.002Z,99264.75
2022-07-26T11:58:46.600Z,99264.38
2022-07-26T11:59:51.039Z,99260.91
2022-07-26T12:00:53.474Z,99270.63
2022-07-26T12:01:57.119Z,99267.66
2022-07-26T12:02:59.532Z,99269.91
2022-07-26T12:04:03.541Z,99266.81
2022-07-26T12:05:21.075Z,99268.38
2022-07-26T12:06:26.718Z,99263.38
2022-07-26T12:07:29.167Z,99272.66
2022-07-26T12:08:56.002Z,99279.09
2022-07-26T12:10:01.469Z,99275.22
2022-07-26T12:11:04.776Z,99270.72
2022-07-26T12:12:19.901Z,99279.25
2022-07-26T12:13:24.374Z,99275.19
2022-07-26T12:14:31.593Z,99267.47
2022-07-26T12:15:48.681Z,99269.59
2022-07-26T12:16:51.496Z,99268.19
2022-07-26T12:18:00.780Z,99261.75
2022-07-26T12:19:08.732Z,99273.78
2022-07-26T12:20:20.445Z,99266.75
2022-07-26T12:21:40.307Z,99259.91
2022-07-26T12:23:06.172Z,99265.50
2022-07-26T12:24:14.278Z,99266.22
2022-07-26T12:25:28.710Z,99260.44
2022-07-26T12:26:31.433Z,99262.38
2022-07-26T12:27:34.144Z,99263.03
2022-07-26T12:28:42.913Z,99264.19
2022-07-26T12:29:47.868Z,99258.63
2022-07-26T12:30:50.375Z,99260.38
2022-07-26T12:32:10.392Z,99256.38
2022-07-26T12:33:14.733Z,99256.72
2022-07-26T12:34:21.652Z,99261.94
2022-07-26T12:35:33.573Z,99255.72
2022-07-26T12:36:36.060Z,99260.81
2022-07-26T12:37:51.401Z,99252.13
2022-07-26T12:38:55.978Z,99254.91
2022-07-26T12:40:16.191Z,99256.34
2022-07-26T12:41:40.360Z,99257.22
2022-07-26T12:42:58.627Z,99247.28